sensor_id;sensor_type;location;lat;lon;timestamp;P1;durP1;ratioP1;P2;durP2;ratioP2
2464;SDS011;1244;54.326;10.074;2023-05-29T00:01:05;0.20;;;0.20;;
2464;SDS011;1244;54.326;10.074;2023-05-29T00:03:33;0.20;;;0.20;;
2464;SDS011;1244;54.326;10.074;2023-05-29T00:05:58;0.20;;;0.20;;
2464;SDS011;1244;54.326;10.074;2023-05-29T00:08:25;0.20;;;0.20;;
2464;SDS011;1244;54.326;10.074;2023-05-29T00:10:51;0.20;;;0.20;;
2464;SDS011;1244;54.326;10.074;2023-05-29T00:13:17;0.20;;;0.20;;
2464;SDS011;1244;54.326;10.074;2023-05-29T00:15:42;0.20;;;0.20;;
2464;SDS011;1244;54.326;10.074;2023-05-29T00:18:08;0.20;;;0.20;;
2464;SDS011;1244;54.326;10.074;2023-05-29T00:20:33;0.20;;;0.20;;
2464;SDS011;1244;54.326;10.074;2023-05-29T00:22:59;0.20;;;0.20;;
2464;SDS011;1244;54.326;10.074;2023-05-29T00:25:27;0.20;;;0.20;;
2464;SDS011;1244;54.326;10.074;2023-05-29T00:27:52;0.20;;;0.20;;
2464;SDS011;1244;54.326;10.074;2023-05-29T00:30:18;0.20;;;0.20;;
2464;SDS011;1244;54.326;10.074;2023-05-29T00:32:43;0.20;;;0.20;;
2464;SDS011;1244;54.326;10.074;2023-05-29T00:35:09;0.20;;;0.20;;
2464;SDS011;1244;54.326;10.074;2023-05-29T00:37:35;0.20;;;0.20;;
2464;SDS011;1244;54.326;10.074;2023-05-29T00:40:01;0.20;;;0.20;;
2464;SDS011;1244;54.326;10.074;2023-05-29T00:42:26;0.20;;;0.20;;
2464;SDS011;1244;54.326;10.074;2023-05-29T00:44:52;0.20;;;0.20;;
2464;SDS011;1244;54.326;10.074;2023-05-29T00:47:17;0.20;;;0.20;;
2464;SDS011;1244;54.326;10.074;2023-05-29T00:49:43;0.20;;;0.20;;
2464;SDS011;1244;54.326;10.074;2023-05-29T00:52:09;0.20;;;0.20;;
2464;SDS011;1244;54.326;10.074;2023-05-29T00:54:36;0.20;;;0.20;;
2464;SDS011;1244;54.326;10.074;2023-05-29T00:57:02;0.20;;;0.20;;
2464;SDS011;1244;54.326;10.074;2023-05-29T00:59:31;0.20;;;0.20;;
2464;SDS011;1244;54.326;10.074;2023-05-29T01:01:59;0.20;;;0.20;;
2464;SDS011;1244;54.326;10.074;2023-05-29T01:04:27;0.20;;;0.20;;
2464;SDS011;1244;54.326;10.074;2023-05-29T01:06:53;0.20;;;0.20;;
2464;SDS011;1244;54.326;10.074;2023-05-29T01:09:18;0.20;;;0.20;;
2464;SDS011;1244;54.326;10.074;2023-05-29T01:11:58;0.20;;;0.20;;
2464;SDS011;1244;54.326;10.074;2023-05-29T01:14:44;0.20;;;0.20;;
2464;SDS011;1244;54.326;10.074;2023-05-29T01:17:39;0.20;;;0.20;;
2464;SDS011;1244;54.326;10.074;2023-05-29T01:23:01;0.20;;;0.20;;
2464;SDS011;1244;54.326;10.074;2023-05-29T01:28:20;0.20;;;0.20;;
2464;SDS011;1244;54.326;10.074;2023-05-29T01:30:49;0.20;;;0.20;;
2464;SDS011;1244;54.326;10.074;2023-05-29T01:33:16;0.20;;;0.20;;
2464;SDS011;1244;54.326;10.074;2023-05-29T01:35:42;0.30;;;0.30;;
2464;SDS011;1244;54.326;10.074;2023-05-29T01:38:08;0.20;;;0.20;;
2464;SDS011;1244;54.326;10.074;2023-05-29T01:40:33;0.23;;;0.23;;
2464;SDS011;1244;54.326;10.074;2023-05-29T01:42:59;0.20;;;0.20;;
2464;SDS011;1244;54.326;10.074;2023-05-29T01:45:25;0.20;;;0.20;;
2464;SDS011;1244;54.326;10.074;2023-05-29T01:47:50;0.20;;;0.20;;
2464;SDS011;1244;54.326;10.074;2023-05-29T01:50:17;0.20;;;0.20;;
2464;SDS011;1244;54.326;10.074;2023-05-29T01:52:44;0.20;;;0.20;;
2464;SDS011;1244;54.326;10.074;2023-05-29T01:55:09;0.20;;;0.20;;
2464;SDS011;1244;54.326;10.074;2023-05-29T01:57:35;0.20;;;0.20;;
2464;SDS011;1244;54.326;10.074;2023-05-29T02:00:02;0.20;;;0.20;;
2464;SDS011;1244;54.326;10.074;2023-05-29T02:02:37;0.20;;;0.20;;
2464;SDS011;1244;54.326;10.074;2023-05-29T02:05:04;0.20;;;0.20;;
2464;SDS011;1244;54.326;10.074;2023-05-29T02:07:30;0.20;;;0.20;;
2464;SDS011;1244;54.326;10.074;2023-05-29T02:09:56;0.20;;;0.20;;
2464;SDS011;1244;54.326;10.074;2023-05-29T02:12:21;0.20;;;0.20;;
2464;SDS011;1244;54.326;10.074;2023-05-29T02:14:47;0.20;;;0.20;;
2464;SDS011;1244;54.326;10.074;2023-05-29T02:17:13;0.20;;;0.20;;
2464;SDS011;1244;54.326;10.074;2023-05-29T02:19:39;0.20;;;0.20;;
2464;SDS011;1244;54.326;10.074;2023-05-29T02:22:05;0.20;;;0.20;;
2464;SDS011;1244;54.326;10.074;2023-05-29T02:24:31;0.30;;;0.30;;
2464;SDS011;1244;54.326;10.074;2023-05-29T02:26:57;0.20;;;0.20;;
2464;SDS011;1244;54.326;10.074;2023-05-29T02:29:22;0.20;;;0.20;;
2464;SDS011;1244;54.326;10.074;2023-05-29T02:31:48;0.20;;;0.20;;
2464;SDS011;1244;54.326;10.074;2023-05-29T02:34:13;0.20;;;0.20;;
2464;SDS011;1244;54.326;10.074;2023-05-29T02:36:39;0.30;;;0.30;;
2464;SDS011;1244;54.326;10.074;2023-05-29T02:39:05;0.20;;;0.20;;
2464;SDS011;1244;54.326;10.074;2023-05-29T02:41:31;0.20;;;0.20;;
2464;SDS011;1244;54.326;10.074;2023-05-29T02:43:56;0.20;;;0.20;;
2464;SDS011;1244;54.326;10.074;2023-05-29T02:46:22;0.20;;;0.20;;
2464;SDS011;1244;54.326;10.074;2023-05-29T02:48:47;0.20;;;0.20;;
2464;SDS011;1244;54.326;10.074;2023-05-29T02:51:13;0.30;;;0.30;;
2464;SDS011;1244;54.326;10.074;2023-05-29T02:53:39;0.30;;;0.30;;
2464;SDS011;1244;54.326;10.074;2023-05-29T02:56:05;0.20;;;0.20;;
2464;SDS011;1244;54.326;10.074;2023-05-29T02:58:33;0.30;;;0.30;;
2464;SDS011;1244;54.326;10.074;2023-05-29T03:01:00;0.20;;;0.20;;
2464;SDS011;1244;54.326;10.074;2023-05-29T03:03:27;0.20;;;0.20;;
2464;SDS011;1244;54.326;10.074;2023-05-29T03:05:53;0.30;;;0.30;;
2464;SDS011;1244;54.326;10.074;2023-05-29T03:08:18;0.20;;;0.20;;
2464;SDS011;1244;54.326;10.074;2023-05-29T03:10:44;0.30;;;0.30;;
2464;SDS011;1244;54.326;10.074;2023-05-29T03:13:10;0.30;;;0.30;;
2464;SDS011;1244;54.326;10.074;2023-05-29T03:15:35;0.30;;;0.30;;
2464;SDS011;1244;54.326;10.074;2023-05-29T03:18:01;0.20;;;0.20;;
2464;SDS011;1244;54.326;10.074;2023-05-29T03:20:26;0.20;;;0.20;;
2464;SDS011;1244;54.326;10.074;2023-05-29T03:22:53;0.30;;;0.30;;
2464;SDS011;1244;54.326;10.074;2023-05-29T03:25:18;0.20;;;0.20;;
2464;SDS011;1244;54.326;10.074;2023-05-29T03:27:45;0.30;;;0.30;;
2464;SDS011;1244;54.326;10.074;2023-05-29T03:30:11;0.30;;;0.30;;
2464;SDS011;1244;54.326;10.074;2023-05-29T03:32:37;0.30;;;0.30;;
2464;SDS011;1244;54.326;10.074;2023-05-29T03:35:02;0.20;;;0.20;;
2464;SDS011;1244;54.326;10.074;2023-05-29T03:37:28;0.30;;;0.30;;
2464;SDS011;1244;54.326;10.074;2023-05-29T03:39:54;0.30;;;0.30;;
2464;SDS011;1244;54.326;10.074;2023-05-29T03:42:20;0.20;;;0.20;;
2464;SDS011;1244;54.326;10.074;2023-05-29T03:44:46;0.30;;;0.30;;
2464;SDS011;1244;54.326;10.074;2023-05-29T03:47:11;0.30;;;0.30;;
2464;SDS011;1244;54.326;10.074;2023-05-29T03:49:37;0.20;;;0.20;;
2464;SDS011;1244;54.326;10.074;2023-05-29T03:52:03;0.20;;;0.20;;
2464;SDS011;1244;54.326;10.074;2023-05-29T03:54:29;0.30;;;0.30;;
2464;SDS011;1244;54.326;10.074;2023-05-29T03:56:54;0.20;;;0.20;;
2464;SDS011;1244;54.326;10.074;2023-05-29T03:59:20;0.20;;;0.20;;
2464;SDS011;1244;54.326;10.074;2023-05-29T04:01:45;0.20;;;0.20;;
2464;SDS011;1244;54.326;10.074;2023-05-29T04:04:11;0.20;;;0.20;;
2464;SDS011;1244;54.326;10.074;2023-05-29T04:06:37;0.30;;;0.30;;
2464;SDS011;1244;54.326;10.074;2023-05-29T04:09:05;0.20;;;0.20;;
2464;SDS011;1244;54.326;10.074;2023-05-29T04:11:32;0.20;;;0.20;;
2464;SDS011;1244;54.326;10.074;2023-05-29T04:13:59;0.20;;;0.20;;
2464;SDS011;1244;54.326;10.074;2023-05-29T04:16:25;0.20;;;0.20;;
2464;SDS011;1244;54.326;10.074;2023-05-29T04:18:50;0.20;;;0.20;;
2464;SDS011;1244;54.326;10.074;2023-05-29T04:21:16;0.20;;;0.20;;
2464;SDS011;1244;54.326;10.074;2023-05-29T04:23:41;0.20;;;0.20;;
2464;SDS011;1244;54.326;10.074;2023-05-29T04:26:07;0.20;;;0.20;;
2464;SDS011;1244;54.326;10.074;2023-05-29T04:28:32;0.20;;;0.20;;
2464;SDS011;1244;54.326;10.074;2023-05-29T04:30:58;0.27;;;0.27;;
2464;SDS011;1244;54.326;10.074;2023-05-29T04:33:25;0.20;;;0.20;;
2464;SDS011;1244;54.326;10.074;2023-05-29T04:35:51;0.20;;;0.20;;
2464;SDS011;1244;54.326;10.074;2023-05-29T04:38:17;0.20;;;0.20;;
2464;SDS011;1244;54.326;10.074;2023-05-29T04:40:44;0.20;;;0.20;;
2464;SDS011;1244;54.326;10.074;2023-05-29T04:43:09;0.20;;;0.20;;
2464;SDS011;1244;54.326;10.074;2023-05-29T04:45:35;0.20;;;0.20;;
2464;SDS011;1244;54.326;10.074;2023-05-29T04:48:02;0.20;;;0.20;;
2464;SDS011;1244;54.326;10.074;2023-05-29T04:50:28;0.23;;;0.23;;
2464;SDS011;1244;54.326;10.074;2023-05-29T04:52:55;0.20;;;0.20;;
2464;SDS011;1244;54.326;10.074;2023-05-29T04:55:22;0.20;;;0.20;;
2464;SDS011;1244;54.326;10.074;2023-05-29T04:57:48;0.20;;;0.20;;
2464;SDS011;1244;54.326;10.074;2023-05-29T05:00:20;0.20;;;0.20;;
2464;SDS011;1244;54.326;10.074;2023-05-29T05:02:58;0.20;;;0.20;;
2464;SDS011;1244;54.326;10.074;2023-05-29T05:05:23;0.20;;;0.20;;
2464;SDS011;1244;54.326;10.074;2023-05-29T05:07:49;0.20;;;0.20;;
2464;SDS011;1244;54.326;10.074;2023-05-29T05:10:16;0.20;;;0.20;;
2464;SDS011;1244;54.326;10.074;2023-05-29T05:12:41;0.20;;;0.20;;
2464;SDS011;1244;54.326;10.074;2023-05-29T05:15:07;0.20;;;0.20;;
2464;SDS011;1244;54.326;10.074;2023-05-29T05:17:33;0.20;;;0.20;;
2464;SDS011;1244;54.326;10.074;2023-05-29T05:19:59;0.20;;;0.20;;
2464;SDS011;1244;54.326;10.074;2023-05-29T05:22:24;0.20;;;0.20;;
2464;SDS011;1244;54.326;10.074;2023-05-29T05:24:50;0.20;;;0.20;;
2464;SDS011;1244;54.326;10.074;2023-05-29T05:27:17;0.20;;;0.20;;
2464;SDS011;1244;54.326;10.074;2023-05-29T05:29:43;0.20;;;0.20;;
2464;SDS011;1244;54.326;10.074;2023-05-29T05:32:08;0.20;;;0.20;;
2464;SDS011;1244;54.326;10.074;2023-05-29T05:34:34;0.20;;;0.20;;
2464;SDS011;1244;54.326;10.074;2023-05-29T05:37:00;0.20;;;0.20;;
2464;SDS011;1244;54.326;10.074;2023-05-29T05:39:27;0.20;;;0.20;;
2464;SDS011;1244;54.326;10.074;2023-05-29T05:41:52;0.20;;;0.20;;
2464;SDS011;1244;54.326;10.074;2023-05-29T05:44:18;0.20;;;0.20;;
2464;SDS011;1244;54.326;10.074;2023-05-29T05:46:44;0.20;;;0.20;;
2464;SDS011;1244;54.326;10.074;2023-05-29T05:49:10;0.20;;;0.20;;
2464;SDS011;1244;54.326;10.074;2023-05-29T05:51:35;0.20;;;0.20;;
2464;SDS011;1244;54.326;10.074;2023-05-29T05:54:01;0.20;;;0.20;;
2464;SDS011;1244;54.326;10.074;2023-05-29T05:56:26;0.10;;;0.10;;
2464;SDS011;1244;54.326;10.074;2023-05-29T05:58:52;0.10;;;0.10;;
2464;SDS011;1244;54.326;10.074;2023-05-29T06:01:17;0.20;;;0.20;;
2464;SDS011;1244;54.326;10.074;2023-05-29T06:03:43;0.20;;;0.20;;
2464;SDS011;1244;54.326;10.074;2023-05-29T06:06:09;0.20;;;0.20;;
2464;SDS011;1244;54.326;10.074;2023-05-29T06:08:35;0.20;;;0.20;;
2464;SDS011;1244;54.326;10.074;2023-05-29T06:11:00;0.20;;;0.20;;
2464;SDS011;1244;54.326;10.074;2023-05-29T06:13:26;0.10;;;0.10;;
2464;SDS011;1244;54.326;10.074;2023-05-29T06:15:51;0.20;;;0.20;;
2464;SDS011;1244;54.326;10.074;2023-05-29T06:18:17;0.20;;;0.20;;
2464;SDS011;1244;54.326;10.074;2023-05-29T06:20:43;0.20;;;0.20;;
2464;SDS011;1244;54.326;10.074;2023-05-29T06:23:08;0.20;;;0.20;;
2464;SDS011;1244;54.326;10.074;2023-05-29T06:25:34;0.17;;;0.17;;
2464;SDS011;1244;54.326;10.074;2023-05-29T06:28:02;0.10;;;0.10;;
2464;SDS011;1244;54.326;10.074;2023-05-29T06:30:30;0.20;;;0.20;;
2464;SDS011;1244;54.326;10.074;2023-05-29T06:32:56;0.20;;;0.20;;
2464;SDS011;1244;54.326;10.074;2023-05-29T06:35:21;0.13;;;0.13;;
2464;SDS011;1244;54.326;10.074;2023-05-29T06:37:47;0.20;;;0.20;;
2464;SDS011;1244;54.326;10.074;2023-05-29T06:40:13;0.10;;;0.10;;
2464;SDS011;1244;54.326;10.074;2023-05-29T06:42:39;0.20;;;0.20;;
2464;SDS011;1244;54.326;10.074;2023-05-29T06:45:04;0.10;;;0.10;;
2464;SDS011;1244;54.326;10.074;2023-05-29T06:47:30;0.20;;;0.20;;
2464;SDS011;1244;54.326;10.074;2023-05-29T06:49:56;0.10;;;0.10;;
2464;SDS011;1244;54.326;10.074;2023-05-29T06:52:22;0.10;;;0.10;;
2464;SDS011;1244;54.326;10.074;2023-05-29T06:54:47;0.10;;;0.10;;
2464;SDS011;1244;54.326;10.074;2023-05-29T06:57:13;0.10;;;0.10;;
2464;SDS011;1244;54.326;10.074;2023-05-29T06:59:38;0.20;;;0.20;;
2464;SDS011;1244;54.326;10.074;2023-05-29T07:02:04;0.10;;;0.10;;
2464;SDS011;1244;54.326;10.074;2023-05-29T07:04:30;0.10;;;0.10;;
2464;SDS011;1244;54.326;10.074;2023-05-29T07:06:56;0.20;;;0.20;;
2464;SDS011;1244;54.326;10.074;2023-05-29T07:09:21;0.10;;;0.10;;
2464;SDS011;1244;54.326;10.074;2023-05-29T07:11:47;0.10;;;0.10;;
2464;SDS011;1244;54.326;10.074;2023-05-29T07:14:12;0.10;;;0.10;;
2464;SDS011;1244;54.326;10.074;2023-05-29T07:16:39;0.10;;;0.10;;
2464;SDS011;1244;54.326;10.074;2023-05-29T07:19:04;0.10;;;0.10;;
2464;SDS011;1244;54.326;10.074;2023-05-29T07:21:30;0.10;;;0.10;;
2464;SDS011;1244;54.326;10.074;2023-05-29T07:23:56;0.10;;;0.10;;
2464;SDS011;1244;54.326;10.074;2023-05-29T07:26:21;0.10;;;0.10;;
2464;SDS011;1244;54.326;10.074;2023-05-29T07:28:47;0.10;;;0.10;;
2464;SDS011;1244;54.326;10.074;2023-05-29T07:31:13;0.10;;;0.10;;
2464;SDS011;1244;54.326;10.074;2023-05-29T07:33:39;0.10;;;0.10;;
2464;SDS011;1244;54.326;10.074;2023-05-29T07:36:06;0.10;;;0.10;;
2464;SDS011;1244;54.326;10.074;2023-05-29T07:38:32;0.10;;;0.10;;
2464;SDS011;1244;54.326;10.074;2023-05-29T07:40:58;0.10;;;0.10;;
2464;SDS011;1244;54.326;10.074;2023-05-29T07:43:23;0.10;;;0.10;;
2464;SDS011;1244;54.326;10.074;2023-05-29T07:45:49;0.10;;;0.10;;
2464;SDS011;1244;54.326;10.074;2023-05-29T07:48:14;0.10;;;0.10;;
2464;SDS011;1244;54.326;10.074;2023-05-29T07:50:40;0.10;;;0.10;;
2464;SDS011;1244;54.326;10.074;2023-05-29T07:53:06;0.10;;;0.10;;
2464;SDS011;1244;54.326;10.074;2023-05-29T07:55:31;0.10;;;0.10;;
2464;SDS011;1244;54.326;10.074;2023-05-29T07:57:58;0.10;;;0.10;;
2464;SDS011;1244;54.326;10.074;2023-05-29T08:00:24;0.10;;;0.10;;
2464;SDS011;1244;54.326;10.074;2023-05-29T08:02:50;0.10;;;0.10;;
2464;SDS011;1244;54.326;10.074;2023-05-29T08:05:16;0.10;;;0.10;;
2464;SDS011;1244;54.326;10.074;2023-05-29T08:07:42;0.10;;;0.10;;
2464;SDS011;1244;54.326;10.074;2023-05-29T08:10:08;0.10;;;0.10;;
2464;SDS011;1244;54.326;10.074;2023-05-29T08:12:34;0.10;;;0.10;;
2464;SDS011;1244;54.326;10.074;2023-05-29T08:15:02;0.10;;;0.10;;
2464;SDS011;1244;54.326;10.074;2023-05-29T08:17:28;0.10;;;0.10;;
2464;SDS011;1244;54.326;10.074;2023-05-29T08:19:53;0.10;;;0.10;;
2464;SDS011;1244;54.326;10.074;2023-05-29T08:22:19;0.10;;;0.10;;
2464;SDS011;1244;54.326;10.074;2023-05-29T08:24:44;0.10;;;0.10;;
2464;SDS011;1244;54.326;10.074;2023-05-29T08:27:10;0.10;;;0.10;;
2464;SDS011;1244;54.326;10.074;2023-05-29T08:29:35;0.10;;;0.10;;
2464;SDS011;1244;54.326;10.074;2023-05-29T08:32:03;0.10;;;0.10;;
2464;SDS011;1244;54.326;10.074;2023-05-29T08:34:29;0.10;;;0.10;;
2464;SDS011;1244;54.326;10.074;2023-05-29T08:36:55;0.10;;;0.10;;
2464;SDS011;1244;54.326;10.074;2023-05-29T08:39:21;0.10;;;0.10;;
2464;SDS011;1244;54.326;10.074;2023-05-29T08:44:16;0.10;;;0.10;;
2464;SDS011;1244;54.326;10.074;2023-05-29T08:46:46;0.10;;;0.10;;
2464;SDS011;1244;54.326;10.074;2023-05-29T08:49:15;0.10;;;0.10;;
2464;SDS011;1244;54.326;10.074;2023-05-29T08:51:42;0.10;;;0.10;;
2464;SDS011;1244;54.326;10.074;2023-05-29T08:54:12;0.10;;;0.10;;
2464;SDS011;1244;54.326;10.074;2023-05-29T08:56:40;0.10;;;0.10;;
2464;SDS011;1244;54.326;10.074;2023-05-29T08:59:06;0.10;;;0.10;;
2464;SDS011;1244;54.326;10.074;2023-05-29T09:01:33;0.10;;;0.10;;
2464;SDS011;1244;54.326;10.074;2023-05-29T09:04:00;0.10;;;0.10;;
2464;SDS011;1244;54.326;10.074;2023-05-29T09:06:26;0.10;;;0.10;;
2464;SDS011;1244;54.326;10.074;2023-05-29T09:08:52;0.10;;;0.10;;
2464;SDS011;1244;54.326;10.074;2023-05-29T09:11:17;0.10;;;0.10;;
2464;SDS011;1244;54.326;10.074;2023-05-29T09:13:43;0.10;;;0.10;;
2464;SDS011;1244;54.326;10.074;2023-05-29T09:16:10;0.10;;;0.10;;
2464;SDS011;1244;54.326;10.074;2023-05-29T09:18:36;0.10;;;0.00;;
2464;SDS011;1244;54.326;10.074;2023-05-29T09:21:06;0.10;;;0.10;;
2464;SDS011;1244;54.326;10.074;2023-05-29T09:23:34;0.10;;;0.10;;
2464;SDS011;1244;54.326;10.074;2023-05-29T09:26:01;0.10;;;0.10;;
2464;SDS011;1244;54.326;10.074;2023-05-29T09:28:28;0.10;;;0.00;;
2464;SDS011;1244;54.326;10.074;2023-05-29T09:30:56;0.10;;;0.10;;
2464;SDS011;1244;54.326;10.074;2023-05-29T09:33:22;0.10;;;0.07;;
2464;SDS011;1244;54.326;10.074;2023-05-29T09:35:49;0.10;;;0.00;;
2464;SDS011;1244;54.326;10.074;2023-05-29T09:38:16;0.10;;;0.10;;
2464;SDS011;1244;54.326;10.074;2023-05-29T09:40:44;0.10;;;0.00;;
2464;SDS011;1244;54.326;10.074;2023-05-29T09:45:45;0.10;;;0.00;;
2464;SDS011;1244;54.326;10.074;2023-05-29T09:48:24;0.10;;;0.00;;
2464;SDS011;1244;54.326;10.074;2023-05-29T09:50:51;0.10;;;0.00;;
2464;SDS011;1244;54.326;10.074;2023-05-29T09:53:19;0.10;;;0.00;;
2464;SDS011;1244;54.326;10.074;2023-05-29T09:55:47;0.10;;;0.07;;
2464;SDS011;1244;54.326;10.074;2023-05-29T09:58:13;0.10;;;0.00;;
2464;SDS011;1244;54.326;10.074;2023-05-29T10:00:41;0.10;;;0.10;;
2464;SDS011;1244;54.326;10.074;2023-05-29T10:03:07;0.10;;;0.00;;
2464;SDS011;1244;54.326;10.074;2023-05-29T10:05:33;0.10;;;0.00;;
2464;SDS011;1244;54.326;10.074;2023-05-29T10:08:00;0.10;;;0.00;;
2464;SDS011;1244;54.326;10.074;2023-05-29T10:10:27;0.10;;;0.00;;
2464;SDS011;1244;54.326;10.074;2023-05-29T10:12:54;0.10;;;0.00;;
2464;SDS011;1244;54.326;10.074;2023-05-29T10:15:23;0.10;;;0.00;;
2464;SDS011;1244;54.326;10.074;2023-05-29T10:18:05;0.10;;;0.00;;
2464;SDS011;1244;54.326;10.074;2023-05-29T10:20:36;0.00;;;0.00;;
2464;SDS011;1244;54.326;10.074;2023-05-29T10:23:02;0.10;;;0.00;;
2464;SDS011;1244;54.326;10.074;2023-05-29T10:25:29;0.10;;;0.00;;
2464;SDS011;1244;54.326;10.074;2023-05-29T10:27:57;0.10;;;0.00;;
2464;SDS011;1244;54.326;10.074;2023-05-29T10:33:21;0.10;;;0.00;;
2464;SDS011;1244;54.326;10.074;2023-05-29T10:38:48;0.00;;;0.00;;
2464;SDS011;1244;54.326;10.074;2023-05-29T10:44:02;0.10;;;0.00;;
2464;SDS011;1244;54.326;10.074;2023-05-29T10:47:10;0.10;;;0.00;;
2464;SDS011;1244;54.326;10.074;2023-05-29T10:49:20;0.10;;;0.00;;
2464;SDS011;1244;54.326;10.074;2023-05-29T10:51:46;0.03;;;0.00;;
2464;SDS011;1244;54.326;10.074;2023-05-29T10:54:13;0.10;;;0.00;;
2464;SDS011;1244;54.326;10.074;2023-05-29T10:56:39;0.10;;;0.00;;
2464;SDS011;1244;54.326;10.074;2023-05-29T10:59:07;0.10;;;0.10;;
2464;SDS011;1244;54.326;10.074;2023-05-29T11:01:33;0.10;;;0.00;;
2464;SDS011;1244;54.326;10.074;2023-05-29T11:06:56;0.10;;;0.00;;
2464;SDS011;1244;54.326;10.074;2023-05-29T11:09:29;0.10;;;0.00;;
2464;SDS011;1244;54.326;10.074;2023-05-29T11:12:15;0.10;;;0.00;;
2464;SDS011;1244;54.326;10.074;2023-05-29T11:15:06;0.10;;;0.00;;
2464;SDS011;1244;54.326;10.074;2023-05-29T11:20:07;0.10;;;0.00;;
2464;SDS011;1244;54.326;10.074;2023-05-29T11:22:48;0.10;;;0.00;;
2464;SDS011;1244;54.326;10.074;2023-05-29T11:25:24;0.00;;;0.00;;
2464;SDS011;1244;54.326;10.074;2023-05-29T11:27:51;0.10;;;0.00;;
2464;SDS011;1244;54.326;10.074;2023-05-29T11:30:21;0.10;;;0.00;;
2464;SDS011;1244;54.326;10.074;2023-05-29T11:32:47;0.10;;;0.00;;
2464;SDS011;1244;54.326;10.074;2023-05-29T11:35:17;0.10;;;0.00;;
2464;SDS011;1244;54.326;10.074;2023-05-29T11:37:46;0.00;;;0.00;;
2464;SDS011;1244;54.326;10.074;2023-05-29T11:40:12;0.00;;;0.00;;
2464;SDS011;1244;54.326;10.074;2023-05-29T11:42:41;0.00;;;0.00;;
2464;SDS011;1244;54.326;10.074;2023-05-29T11:47:53;0.00;;;0.00;;
2464;SDS011;1244;54.326;10.074;2023-05-29T11:50:22;0.00;;;0.00;;
2464;SDS011;1244;54.326;10.074;2023-05-29T11:52:52;0.00;;;0.00;;
2464;SDS011;1244;54.326;10.074;2023-05-29T11:55:21;0.00;;;0.00;;
2464;SDS011;1244;54.326;10.074;2023-05-29T11:57:48;0.00;;;0.00;;
2464;SDS011;1244;54.326;10.074;2023-05-29T12:00:15;0.10;;;0.00;;
2464;SDS011;1244;54.326;10.074;2023-05-29T12:02:43;0.10;;;0.00;;
2464;SDS011;1244;54.326;10.074;2023-05-29T12:05:12;0.10;;;0.00;;
2464;SDS011;1244;54.326;10.074;2023-05-29T12:07:46;0.10;;;0.00;;
2464;SDS011;1244;54.326;10.074;2023-05-29T12:10:21;0.00;;;0.00;;
2464;SDS011;1244;54.326;10.074;2023-05-29T12:12:48;0.10;;;0.00;;
2464;SDS011;1244;54.326;10.074;2023-05-29T12:15:17;0.00;;;0.00;;
2464;SDS011;1244;54.326;10.074;2023-05-29T12:17:44;0.00;;;0.00;;
2464;SDS011;1244;54.326;10.074;2023-05-29T12:20:11;0.00;;;0.00;;
2464;SDS011;1244;54.326;10.074;2023-05-29T12:22:38;0.00;;;0.00;;
2464;SDS011;1244;54.326;10.074;2023-05-29T12:25:12;0.10;;;0.00;;
2464;SDS011;1244;54.326;10.074;2023-05-29T12:27:40;0.10;;;0.00;;
2464;SDS011;1244;54.326;10.074;2023-05-29T12:30:11;0.10;;;0.00;;
2464;SDS011;1244;54.326;10.074;2023-05-29T12:32:40;0.10;;;0.00;;
2464;SDS011;1244;54.326;10.074;2023-05-29T12:37:43;0.10;;;0.00;;
2464;SDS011;1244;54.326;10.074;2023-05-29T12:40:30;0.10;;;0.00;;
2464;SDS011;1244;54.326;10.074;2023-05-29T12:43:05;0.10;;;0.00;;
2464;SDS011;1244;54.326;10.074;2023-05-29T12:45:32;0.10;;;0.00;;
2464;SDS011;1244;54.326;10.074;2023-05-29T12:47:59;0.10;;;0.00;;
2464;SDS011;1244;54.326;10.074;2023-05-29T12:55:22;0.10;;;0.00;;
2464;SDS011;1244;54.326;10.074;2023-05-29T12:57:48;0.10;;;0.00;;
2464;SDS011;1244;54.326;10.074;2023-05-29T13:00:13;0.10;;;0.00;;
2464;SDS011;1244;54.326;10.074;2023-05-29T13:02:39;0.10;;;0.00;;
2464;SDS011;1244;54.326;10.074;2023-05-29T13:05:05;0.10;;;0.00;;
2464;SDS011;1244;54.326;10.074;2023-05-29T13:07:31;0.10;;;0.00;;
2464;SDS011;1244;54.326;10.074;2023-05-29T13:09:58;0.10;;;0.00;;
2464;SDS011;1244;54.326;10.074;2023-05-29T13:12:25;0.10;;;0.00;;
2464;SDS011;1244;54.326;10.074;2023-05-29T13:14:50;0.10;;;0.00;;
2464;SDS011;1244;54.326;10.074;2023-05-29T13:17:16;0.10;;;0.00;;
2464;SDS011;1244;54.326;10.074;2023-05-29T13:19:42;0.10;;;0.00;;
2464;SDS011;1244;54.326;10.074;2023-05-29T13:22:08;0.10;;;0.00;;
2464;SDS011;1244;54.326;10.074;2023-05-29T13:24:33;0.10;;;0.00;;
2464;SDS011;1244;54.326;10.074;2023-05-29T13:26:59;0.10;;;0.00;;
2464;SDS011;1244;54.326;10.074;2023-05-29T13:29:25;0.10;;;0.00;;
2464;SDS011;1244;54.326;10.074;2023-05-29T13:31:51;0.10;;;0.00;;
2464;SDS011;1244;54.326;10.074;2023-05-29T13:34:17;0.10;;;0.00;;
2464;SDS011;1244;54.326;10.074;2023-05-29T13:36:42;0.10;;;0.00;;
2464;SDS011;1244;54.326;10.074;2023-05-29T13:39:09;0.10;;;0.00;;
2464;SDS011;1244;54.326;10.074;2023-05-29T13:41:35;0.10;;;0.00;;
2464;SDS011;1244;54.326;10.074;2023-05-29T13:44:01;0.10;;;0.00;;
2464;SDS011;1244;54.326;10.074;2023-05-29T13:46:26;0.10;;;0.00;;
2464;SDS011;1244;54.326;10.074;2023-05-29T13:48:52;0.10;;;0.00;;
2464;SDS011;1244;54.326;10.074;2023-05-29T13:51:17;0.10;;;0.00;;
2464;SDS011;1244;54.326;10.074;2023-05-29T13:53:43;0.10;;;0.00;;
2464;SDS011;1244;54.326;10.074;2023-05-29T13:56:08;0.10;;;0.00;;
2464;SDS011;1244;54.326;10.074;2023-05-29T13:58:34;0.10;;;0.00;;
2464;SDS011;1244;54.326;10.074;2023-05-29T14:00:59;0.10;;;0.00;;
2464;SDS011;1244;54.326;10.074;2023-05-29T14:03:25;0.10;;;0.00;;
2464;SDS011;1244;54.326;10.074;2023-05-29T14:05:53;0.10;;;0.00;;
2464;SDS011;1244;54.326;10.074;2023-05-29T14:08:19;0.10;;;0.00;;
2464;SDS011;1244;54.326;10.074;2023-05-29T14:10:45;0.10;;;0.00;;
2464;SDS011;1244;54.326;10.074;2023-05-29T14:13:10;0.10;;;0.00;;
2464;SDS011;1244;54.326;10.074;2023-05-29T14:15:37;0.10;;;0.00;;
2464;SDS011;1244;54.326;10.074;2023-05-29T14:18:02;0.10;;;0.00;;
2464;SDS011;1244;54.326;10.074;2023-05-29T14:20:28;0.10;;;0.00;;
2464;SDS011;1244;54.326;10.074;2023-05-29T14:22:54;0.10;;;0.00;;
2464;SDS011;1244;54.326;10.074;2023-05-29T14:25:19;0.10;;;0.00;;
2464;SDS011;1244;54.326;10.074;2023-05-29T14:27:45;0.10;;;0.00;;
2464;SDS011;1244;54.326;10.074;2023-05-29T14:30:11;0.10;;;0.00;;
2464;SDS011;1244;54.326;10.074;2023-05-29T14:32:36;0.10;;;0.00;;
2464;SDS011;1244;54.326;10.074;2023-05-29T14:35:02;0.10;;;0.00;;
2464;SDS011;1244;54.326;10.074;2023-05-29T14:37:27;0.10;;;0.00;;
2464;SDS011;1244;54.326;10.074;2023-05-29T14:39:53;0.10;;;0.00;;
2464;SDS011;1244;54.326;10.074;2023-05-29T14:42:18;0.10;;;0.00;;
2464;SDS011;1244;54.326;10.074;2023-05-29T14:44:44;0.10;;;0.00;;
2464;SDS011;1244;54.326;10.074;2023-05-29T14:47:12;0.10;;;0.00;;
2464;SDS011;1244;54.326;10.074;2023-05-29T14:49:38;0.10;;;0.00;;
2464;SDS011;1244;54.326;10.074;2023-05-29T14:52:04;0.10;;;0.00;;
2464;SDS011;1244;54.326;10.074;2023-05-29T14:54:31;0.10;;;0.00;;
2464;SDS011;1244;54.326;10.074;2023-05-29T14:56:56;0.10;;;0.00;;
2464;SDS011;1244;54.326;10.074;2023-05-29T14:59:22;0.10;;;0.00;;
2464;SDS011;1244;54.326;10.074;2023-05-29T15:01:48;0.10;;;0.00;;
2464;SDS011;1244;54.326;10.074;2023-05-29T15:04:14;0.10;;;0.00;;
2464;SDS011;1244;54.326;10.074;2023-05-29T15:06:40;0.10;;;0.00;;
2464;SDS011;1244;54.326;10.074;2023-05-29T15:09:06;0.10;;;0.00;;
2464;SDS011;1244;54.326;10.074;2023-05-29T15:11:31;0.10;;;0.00;;
2464;SDS011;1244;54.326;10.074;2023-05-29T15:13:57;0.10;;;0.10;;
2464;SDS011;1244;54.326;10.074;2023-05-29T15:16:22;0.10;;;0.00;;
2464;SDS011;1244;54.326;10.074;2023-05-29T15:18:48;0.10;;;0.00;;
2464;SDS011;1244;54.326;10.074;2023-05-29T15:21:14;0.10;;;0.00;;
2464;SDS011;1244;54.326;10.074;2023-05-29T15:23:39;0.10;;;0.00;;
2464;SDS011;1244;54.326;10.074;2023-05-29T15:26:05;0.10;;;0.00;;
2464;SDS011;1244;54.326;10.074;2023-05-29T15:28:31;0.10;;;0.00;;
2464;SDS011;1244;54.326;10.074;2023-05-29T15:30:57;0.10;;;0.00;;
2464;SDS011;1244;54.326;10.074;2023-05-29T15:33:23;0.10;;;0.00;;